createdAt,value
2022-12-05T00:01:30.805Z,34.35
2022-12-05T00:04:02.355Z,38.10
2022-12-05T00:06:31.302Z,32.80
2022-12-05T00:08:59.244Z,33.78
2022-12-05T00:11:30.370Z,36.63
2022-12-05T00:13:59.960Z,37.75
2022-12-05T00:16:29.121Z,39.05
2022-12-05T00:18:56.803Z,33.20
2022-12-05T00:21:26.946Z,34.17
2022-12-05T00:23:56.300Z,38.03
2022-12-05T00:26:23.784Z,31.65
2022-12-05T00:28:51.807Z,37.72
2022-12-05T00:31:24.114Z,35.58
2022-12-05T00:33:52.198Z,42.38
2022-12-05T00:36:22.125Z,37.08
2022-12-05T00:38:49.963Z,41.60
2022-12-05T00:41:20.766Z,39.40
2022-12-05T00:43:48.039Z,41.10
2022-12-05T00:46:18.146Z,43.35
2022-12-05T00:48:45.789Z,46.75
2022-12-05T00:51:13.083Z,39.38
2022-12-05T00:53:40.865Z,40.42
2022-12-05T00:56:14.484Z,39.47
2022-12-05T00:58:42.075Z,37.25
2022-12-05T01:01:21.509Z,37.17
2022-12-05T01:03:49.457Z,44.35
2022-12-05T01:06:17.010Z,38.42
2022-12-05T01:08:44.474Z,43.75
2022-12-05T01:11:14.901Z,42.85
2022-12-05T01:13:42.564Z,40.83
2022-12-05T01:16:26.753Z,40.38
2022-12-05T01:18:54.899Z,45.33
2022-12-05T01:21:23.007Z,43.60
2022-12-05T01:23:50.759Z,43.20
2022-12-05T01:26:20.144Z,43.65
2022-12-05T01:28:48.284Z,45.75
2022-12-05T01:31:21.798Z,43.20
2022-12-05T01:33:49.799Z,41.72
2022-12-05T01:36:17.692Z,44.25
2022-12-05T01:38:45.249Z,42.60
2022-12-05T01:41:17.055Z,44.00
2022-12-05T01:43:59.847Z,45.75
2022-12-05T01:46:29.765Z,48.38
2022-12-05T01:49:12.345Z,43.42
2022-12-05T01:51:42.940Z,43.92
2022-12-05T01:54:11.927Z,44.92
2022-12-05T01:56:41.203Z,46.20
2022-12-05T01:59:11.289Z,40.17
2022-12-05T02:01:39.651Z,42.40
2022-12-05T02:04:07.346Z,42.17
2022-12-05T02:06:34.747Z,41.72
2022-12-05T02:09:02.469Z,42.92
2022-12-05T02:11:31.781Z,37.45
2022-12-05T02:14:24.996Z,43.47
2022-12-05T02:17:29.396Z,41.08
2022-12-05T02:20:18.313Z,39.95
2022-12-05T02:23:03.871Z,41.45
2022-12-05T02:26:08.441Z,40.47
2022-12-05T02:29:06.360Z,40.50
2022-12-05T02:31:45.203Z,38.10
2022-12-05T02:34:33.789Z,37.40
2022-12-05T02:37:17.221Z,38.33
2022-12-05T02:40:01.248Z,37.38
2022-12-05T02:42:35.997Z,35.13
2022-12-05T02:45:10.030Z,39.70
2022-12-05T02:47:46.735Z,37.00
2022-12-05T02:50:17.721Z,35.58
2022-12-05T02:52:48.875Z,34.95
2022-12-05T02:55:18.827Z,35.17
2022-12-05T02:57:52.947Z,33.40
2022-12-05T03:00:20.328Z,33.30
2022-12-05T03:02:49.143Z,32.55
2022-12-05T03:05:41.154Z,31.83
2022-12-05T03:08:13.064Z,32.35
2022-12-05T03:13:18.406Z,27.67
2022-12-05T03:15:51.075Z,29.85
2022-12-05T03:18:25.213Z,27.92
2022-12-05T03:21:01.064Z,26.70
2022-12-05T03:23:37.161Z,26.70
2022-12-05T03:26:45.462Z,24.23
2022-12-05T03:29:36.606Z,27.40
2022-12-05T03:32:34.195Z,24.73
2022-12-05T03:35:12.205Z,23.75
2022-12-05T03:37:52.983Z,25.48
2022-12-05T03:40:32.041Z,25.38
2022-12-05T03:43:05.583Z,28.67
2022-12-05T03:45:39.631Z,24.45
2022-12-05T03:48:10.768Z,23.42
2022-12-05T03:50:41.598Z,21.00
2022-12-05T03:53:20.913Z,22.40
2022-12-05T03:56:07.730Z,21.65
2022-12-05T03:58:56.662Z,20.00
2022-12-05T04:01:27.665Z,21.13
2022-12-05T04:04:03.389Z,19.00
2022-12-05T04:06:39.416Z,19.73
2022-12-05T04:09:17.128Z,20.38
2022-12-05T04:11:51.562Z,21.08
2022-12-05T04:14:26.172Z,20.15
2022-12-05T04:17:06.939Z,20.40
2022-12-05T04:20:18.849Z,21.15
2022-12-05T04:22:47.060Z,19.65
2022-12-05T04:25:35.148Z,21.73
2022-12-05T04:28:25.100Z,19.60
2022-12-05T04:31:14.570Z,20.50
2022-12-05T04:33:47.303Z,17.73
2022-12-05T04:36:21.726Z,20.40
2022-12-05T04:39:18.412Z,17.73
2022-12-05T04:42:18.229Z,18.08
2022-12-05T04:44:55.820Z,15.68
2022-12-05T04:47:28.211Z,16.08
2022-12-05T04:49:56.653Z,15.30
2022-12-05T04:52:25.738Z,15.82
2022-12-05T04:55:02.424Z,15.57
2022-12-05T04:57:40.840Z,13.70
2022-12-05T05:00:11.383Z,15.00
2022-12-05T05:02:46.871Z,14.85
2022-12-05T05:05:18.528Z,14.82
2022-12-05T05:07:54.916Z,16.58
2022-12-05T05:10:32.596Z,17.48
2022-12-05T05:12:59.851Z,15.38
2022-12-05T05:15:27.141Z,14.68
2022-12-05T05:17:54.328Z,13.93
2022-12-05T05:20:24.347Z,16.08
2022-12-05T05:22:54.203Z,13.18
2022-12-05T05:25:22.200Z,13.13
2022-12-05T05:27:54.888Z,13.93
2022-12-05T05:30:23.727Z,13.35
2022-12-05T05:32:51.765Z,11.52
2022-12-05T05:35:19.108Z,12.63
2022-12-05T05:37:46.696Z,12.38
2022-12-05T05:40:14.345Z,11.68
2022-12-05T05:42:50.912Z,11.98
2022-12-05T05:45:18.709Z,12.02
2022-12-05T05:47:49.053Z,14.07
2022-12-05T05:50:21.509Z,11.38
2022-12-05T05:52:49.664Z,10.65
2022-12-05T05:55:16.951Z,11.32
2022-12-05T05:57:44.204Z,12.57
2022-12-05T06:00:12.309Z,13.23
2022-12-05T06:02:39.768Z,15.93
2022-12-05T06:05:07.758Z,17.70
2022-12-05T06:07:35.080Z,21.25
2022-12-05T06:10:02.652Z,23.88
2022-12-05T06:12:30.098Z,19.67
2022-12-05T06:14:57.405Z,21.27
2022-12-05T06:17:24.627Z,24.55
2022-12-05T06:19:52.108Z,23.38
2022-12-05T06:22:19.406Z,22.80
2022-12-05T06:24:46.712Z,24.17
2022-12-05T06:27:14.040Z,23.23
2022-12-05T06:29:41.381Z,21.35
2022-12-05T06:32:09.328Z,23.77
2022-12-05T06:34:36.587Z,23.23
2022-12-05T06:37:04.304Z,24.85
2022-12-05T06:39:31.600Z,25.80
2022-12-05T06:41:58.833Z,22.83
2022-12-05T06:44:27.192Z,25.33
2022-12-05T06:46:54.756Z,25.52
2022-12-05T06:49:30.716Z,24.60
2022-12-05T06:52:00.335Z,24.13
2022-12-05T06:54:27.648Z,27.48
2022-12-05T06:56:55.007Z,25.52
2022-12-05T06:59:22.325Z,26.33
2022-12-05T07:01:50.354Z,27.48
2022-12-05T07:04:21.607Z,29.20
2022-12-05T07:06:50.992Z,27.07
2022-12-05T07:09:21.543Z,26.27
2022-12-05T07:11:52.198Z,30.48
2022-12-05T07:14:45.900Z,26.67
2022-12-05T07:17:06.768Z,31.42
2022-12-05T07:19:34.251Z,31.02
2022-12-05T07:22:01.494Z,29.05
2022-12-05T07:24:28.791Z,30.77
2022-12-05T07:26:56.004Z,26.75
2022-12-05T07:29:23.416Z,26.70
2022-12-05T07:31:50.719Z,33.53
2022-12-05T07:34:18.005Z,28.83
2022-12-05T07:36:45.279Z,27.85
2022-12-05T07:39:12.513Z,27.95
2022-12-05T07:41:39.752Z,26.77
2022-12-05T07:44:11.846Z,28.30
2022-12-05T07:46:39.822Z,27.15
2022-12-05T07:49:07.961Z,29.67
2022-12-05T07:51:36.003Z,29.15
2022-12-05T07:54:03.444Z,26.55
2022-12-05T07:56:30.652Z,27.48
2022-12-05T07:58:58.045Z,30.10
2022-12-05T08:01:28.105Z,29.08
2022-12-05T08:03:57.666Z,30.35
2022-12-05T08:06:29.266Z,30.77
2022-12-05T08:08:57.252Z,29.15
2022-12-05T08:11:31.155Z,27.73
2022-12-05T08:13:59.016Z,31.75
2022-12-05T08:16:29.069Z,27.48
2022-12-05T08:19:05.563Z,26.73
2022-12-05T08:21:33.827Z,29.50
2022-12-05T08:24:01.621Z,32.35
2022-12-05T08:26:31.417Z,32.42
2022-12-05T08:29:03.803Z,27.20
2022-12-05T08:31:34.405Z,29.75
2022-12-05T08:34:01.740Z,27.92
2022-12-05T08:36:30.617Z,33.40
2022-12-05T08:39:01.644Z,30.88
2022-12-05T08:41:30.347Z,29.23
2022-12-05T08:43:59.710Z,28.52
2022-12-05T08:46:27.210Z,28.58
2022-12-05T08:48:54.752Z,29.25
2022-12-05T08:51:22.212Z,26.83
2022-12-05T08:53:49.452Z,27.88
2022-12-05T08:56:18.189Z,30.83
2022-12-05T08:58:48.740Z,27.45
2022-12-05T09:01:19.494Z,25.83
2022-12-05T09:03:48.303Z,26.40
2022-12-05T09:06:26.236Z,26.63
2022-12-05T09:08:58.193Z,27.80
2022-12-05T09:11:28.527Z,31.02
2022-12-05T09:13:57.783Z,28.70
2022-12-05T09:16:37.075Z,28.75
2022-12-05T09:19:13.281Z,26.20
2022-12-05T09:21:41.348Z,30.27
2022-12-05T09:24:09.836Z,30.63
2022-12-05T09:26:37.165Z,31.13
2022-12-05T09:29:04.485Z,28.60
2022-12-05T09:31:32.270Z,29.92
2022-12-05T09:34:00.593Z,32.22
2022-12-05T09:36:30.160Z,26.83
2022-12-05T09:39:02.469Z,27.15
2022-12-05T09:42:05.510Z,26.60
2022-12-05T09:45:11.271Z,26.95
2022-12-05T09:48:15.755Z,32.38
2022-12-05T09:50:49.829Z,30.17
2022-12-05T09:53:27.750Z,34.50
2022-12-05T09:56:05.520Z,30.58
2022-12-05T09:58:43.521Z,28.00
2022-12-05T10:01:16.798Z,29.50
2022-12-05T10:04:18.785Z,27.20
2022-12-05T10:07:01.170Z,31.92
2022-12-05T10:09:28.438Z,27.90
2022-12-05T10:12:03.304Z,31.15
2022-12-05T10:15:01.394Z,28.02
2022-12-05T10:17:40.155Z,30.10
2022-12-05T10:20:31.284Z,27.48
2022-12-05T10:23:34.594Z,34.53
2022-12-05T10:26:06.361Z,33.17
2022-12-05T10:29:12.061Z,31.40
2022-12-05T10:31:41.607Z,32.58
2022-12-05T10:34:17.573Z,31.70
2022-12-05T10:36:56.548Z,30.45
2022-12-05T10:39:23.958Z,30.70
2022-12-05T10:41:51.500Z,28.42
2022-12-05T10:44:18.863Z,30.15
2022-12-05T10:46:46.533Z,26.48
2022-12-05T10:49:14.037Z,28.70
2022-12-05T10:51:41.380Z,27.02
2022-12-05T10:54:25.545Z,24.52
2022-12-05T10:56:54.227Z,26.02
2022-12-05T10:59:24.349Z,27.63
2022-12-05T11:01:55.110Z,30.55
2022-12-05T11:04:43.487Z,27.35
2022-12-05T11:07:35.730Z,29.63
2022-12-05T11:12:52.419Z,28.08
2022-12-05T11:15:24.942Z,25.75
2022-12-05T11:17:56.954Z,27.85
2022-12-05T11:22:53.675Z,28.35
2022-12-05T11:25:35.588Z,26.17
2022-12-05T11:28:18.252Z,28.63
2022-12-05T11:31:11.942Z,25.30
2022-12-05T11:33:40.439Z,24.92
2022-12-05T11:36:19.974Z,23.13
2022-12-05T11:38:47.358Z,23.02
2022-12-05T11:41:24.211Z,26.83
2022-12-05T11:44:18.652Z,24.30
2022-12-05T11:47:07.195Z,30.02
2022-12-05T11:49:37.435Z,21.60
2022-12-05T11:52:22.713Z,20.30
2022-12-05T11:55:26.554Z,21.25
2022-12-05T11:58:25.470Z,21.13
2022-12-05T12:01:04.996Z,21.40
2022-12-05T12:03:53.738Z,23.15
2022-12-05T12:07:01.813Z,21.42
2022-12-05T12:09:47.926Z,21.33
2022-12-05T12:12:31.842Z,18.70
2022-12-05T12:15:30.141Z,21.17
2022-12-05T12:18:31.944Z,20.13
2022-12-05T12:21:33.936Z,21.13
2022-12-05T12:24:22.407Z,19.15
2022-12-05T12:27:31.766Z,19.63
2022-12-05T12:30:06.786Z,21.95
2022-12-05T12:32:52.545Z,29.92
2022-12-05T12:35:54.061Z,20.70
2022-12-05T12:38:53.880Z,19.92
2022-12-05T12:41:53.651Z,19.33
2022-12-05T12:44:58.170Z,20.48
2022-12-05T12:48:12.669Z,21.50
2022-12-05T12:50:45.484Z,19.83
2022-12-05T12:53:21.652Z,22.20
2022-12-05T12:56:38.724Z,23.63
2022-12-05T12:59:09.260Z,19.85
2022-12-05T13:01:52.850Z,24.77
2022-12-05T13:04:34.644Z,32.53
2022-12-05T13:07:12.610Z,27.17
2022-12-05T13:09:51.540Z,25.00
2022-12-05T13:12:26.726Z,24.73
2022-12-05T13:15:00.522Z,23.67
2022-12-05T13:17:30.616Z,24.35
2022-12-05T13:19:58.342Z,20.25
2022-12-05T13:22:28.690Z,21.25
2022-12-05T13:24:56.726Z,23.02
2022-12-05T13:27:27.761Z,22.95
2022-12-05T13:30:01.803Z,25.05
2022-12-05T13:32:34.160Z,23.38
2022-12-05T13:38:06.490Z,25.42
2022-12-05T13:41:09.508Z,25.70
2022-12-05T13:43:46.157Z,23.02
2022-12-05T13:46:34.983Z,25.27
2022-12-05T13:49:17.407Z,19.30
2022-12-05T13:51:46.054Z,18.65
2022-12-05T13:54:21.239Z,18.30
2022-12-05T13:56:53.486Z,23.58
2022-12-05T13:59:58.869Z,22.50
2022-12-05T14:02:47.434Z,20.75
2022-12-05T14:05:14.802Z,20.38
2022-12-05T14:07:44.986Z,19.55
2022-12-05T14:10:16.846Z,19.80
2022-12-05T14:12:49.269Z,24.87
2022-12-05T14:15:35.073Z,22.70
2022-12-05T14:18:22.670Z,22.52
2022-12-05T14:20:49.934Z,22.60
2022-12-05T14:23:32.241Z,25.48
2022-12-05T14:26:12.228Z,21.75
2022-12-05T14:28:51.448Z,20.70
2022-12-05T14:31:24.729Z,22.10
2022-12-05T14:34:13.085Z,18.55
2022-12-05T14:37:09.160Z,21.70
2022-12-05T14:39:58.229Z,20.35
2022-12-05T14:42:41.184Z,17.73
2022-12-05T14:45:20.504Z,18.67
2022-12-05T14:47:54.381Z,19.50
2022-12-05T14:50:21.676Z,18.70
2022-12-05T14:53:17.248Z,22.85
2022-12-05T14:56:12.270Z,22.30
2022-12-05T14:58:48.865Z,20.33
2022-12-05T15:01:22.254Z,24.00
2022-12-05T15:04:13.972Z,20.52
2022-12-05T15:06:53.430Z,23.10
2022-12-05T15:09:42.153Z,23.92
2022-12-05T15:12:37.123Z,20.23
2022-12-05T15:15:17.495Z,21.23
2022-12-05T15:18:02.408Z,24.27
2022-12-05T15:20:42.742Z,21.45
2022-12-05T15:23:47.510Z,28.42
2022-12-05T15:26:56.743Z,21.95
2022-12-05T15:29:27.093Z,25.58
2022-12-05T15:32:03.569Z,24.25
2022-12-05T15:34:39.604Z,22.02
2022-12-05T15:37:40.004Z,25.05
2022-12-05T15:40:17.832Z,25.13
2022-12-05T15:42:50.478Z,25.13
2022-12-05T15:45:23.650Z,25.80
2022-12-05T15:47:52.311Z,23.65
2022-12-05T15:50:39.276Z,27.35
2022-12-05T15:53:14.649Z,30.00
2022-12-05T15:55:49.759Z,26.35
2022-12-05T15:58:31.591Z,26.90
2022-12-05T16:01:09.755Z,22.63
2022-12-05T16:03:43.654Z,23.30
2022-12-05T16:06:28.618Z,25.55
2022-12-05T16:08:57.173Z,25.52
2022-12-05T16:11:24.632Z,28.17
2022-12-05T16:13:57.254Z,27.80
2022-12-05T16:16:28.510Z,23.75
2022-12-05T16:19:07.176Z,24.73
2022-12-05T16:22:17.803Z,26.55
2022-12-05T16:24:54.996Z,27.05
2022-12-05T16:27:41.691Z,25.73
2022-12-05T16:30:22.986Z,25.70
2022-12-05T16:32:58.200Z,21.48
2022-12-05T16:35:46.073Z,23.15
2022-12-05T16:38:17.663Z,22.65
2022-12-05T16:40:57.429Z,19.75
2022-12-05T16:43:31.746Z,20.05
2022-12-05T16:46:15.800Z,15.30
2022-12-05T16:48:50.306Z,14.82
2022-12-05T16:51:21.409Z,15.52
2022-12-05T16:53:56.413Z,16.63
2022-12-05T16:56:30.432Z,13.82
2022-12-05T16:59:01.654Z,14.50
2022-12-05T17:01:32.144Z,12.67
2022-12-05T17:04:01.682Z,12.25
2022-12-05T17:06:29.009Z,12.77
2022-12-05T17:08:56.232Z,13.88
2022-12-05T17:11:27.007Z,14.68
2022-12-05T17:13:56.021Z,14.88
2022-12-05T17:16:24.799Z,16.90
2022-12-05T17:18:52.306Z,15.18
2022-12-05T17:21:23.859Z,16.20
2022-12-05T17:23:51.688Z,14.13
2022-12-05T17:26:20.991Z,16.58
2022-12-05T17:28:49.011Z,14.18
2022-12-05T17:31:22.043Z,14.82
2022-12-05T17:33:50.768Z,16.45
2022-12-05T17:36:20.706Z,17.63
2022-12-05T17:38:48.596Z,16.25
2022-12-05T17:41:23.774Z,22.88
2022-12-05T17:43:51.677Z,20.85
2022-12-05T17:46:21.414Z,15.57
2022-12-05T17:48:50.153Z,17.02
2022-12-05T17:51:18.234Z,17.52
2022-12-05T17:53:46.144Z,16.85
2022-12-05T17:56:14.237Z,17.95
2022-12-05T17:58:42.246Z,16.98
2022-12-05T18:01:18.172Z,16.92
2022-12-05T18:03:45.723Z,18.67
2022-12-05T18:06:13.533Z,16.70
2022-12-05T18:08:44.048Z,16.40
2022-12-05T18:11:14.204Z,17.30
2022-12-05T18:13:41.584Z,19.35
2022-12-05T18:16:09.393Z,17.02
2022-12-05T18:18:37.043Z,18.67
2022-12-05T18:21:05.497Z,19.67
2022-12-05T18:23:32.703Z,16.17
2022-12-05T18:26:00.602Z,18.80
2022-12-05T18:28:28.185Z,19.70
2022-12-05T18:31:12.505Z,20.52
2022-12-05T18:33:39.976Z,19.73
2022-12-05T18:36:09.721Z,21.42
2022-12-05T18:38:37.866Z,25.58
2022-12-05T18:41:06.523Z,23.02
2022-12-05T18:43:34.096Z,23.77
2022-12-05T18:46:03.317Z,22.38
2022-12-05T18:48:39.514Z,25.30
2022-12-05T18:51:21.924Z,23.23
2022-12-05T18:53:54.869Z,27.73
2022-12-05T18:56:37.001Z,24.60
2022-12-05T19:01:38.871Z,28.35
2022-12-05T19:04:07.579Z,30.25
2022-12-05T19:06:40.011Z,25.63
2022-12-05T19:09:11.580Z,26.08
2022-12-05T19:11:47.177Z,24.50
2022-12-05T19:14:16.383Z,25.33
2022-12-05T19:16:43.694Z,26.20
2022-12-05T19:19:13.509Z,28.73
2022-12-05T19:21:41.909Z,26.92
2022-12-05T19:24:12.421Z,24.27
2022-12-05T19:26:40.126Z,27.92
2022-12-05T19:29:07.980Z,28.33
2022-12-05T19:31:38.019Z,31.80
2022-12-05T19:34:06.720Z,25.27
2022-12-05T19:36:43.278Z,23.88
2022-12-05T19:39:15.586Z,26.88
2022-12-05T19:41:42.978Z,27.98
2022-12-05T19:44:10.497Z,22.98
2022-12-05T19:46:38.155Z,23.75
2022-12-05T19:49:12.961Z,20.50
2022-12-05T19:51:41.011Z,24.75
2022-12-05T19:54:10.294Z,21.80
2022-12-05T19:56:38.521Z,22.95
2022-12-05T19:59:07.052Z,22.15
2022-12-05T20:01:39.186Z,24.13
2022-12-05T20:04:12.818Z,24.58
2022-12-05T20:06:45.973Z,25.95
2022-12-05T20:09:15.410Z,24.83
2022-12-05T20:11:48.245Z,22.40
2022-12-05T20:14:20.620Z,25.17
2022-12-05T20:16:48.110Z,23.45
2022-12-05T20:19:16.678Z,23.90
2022-12-05T20:21:45.056Z,23.80
2022-12-05T20:24:12.438Z,26.63
2022-12-05T20:26:42.794Z,28.42
2022-12-05T20:29:10.997Z,26.67
2022-12-05T20:31:42.821Z,28.88
2022-12-05T20:34:13.809Z,26.02
2022-12-05T20:36:42.071Z,27.03
2022-12-05T20:39:14.418Z,27.25
2022-12-05T20:41:42.009Z,28.15
2022-12-05T20:44:14.385Z,33.67
2022-12-05T20:46:41.817Z,27.73
2022-12-05T20:49:09.493Z,26.83
2022-12-05T20:51:36.819Z,28.67
2022-12-05T20:54:05.552Z,27.42
2022-12-05T20:56:34.440Z,26.33
2022-12-05T20:59:04.828Z,29.77
2022-12-05T21:01:34.553Z,28.63
2022-12-05T21:04:03.987Z,29.75
2022-12-05T21:06:34.429Z,30.55
2022-12-05T21:09:03.494Z,28.60
2022-12-05T21:11:31.152Z,27.15
2022-12-05T21:14:00.818Z,26.42
2022-12-05T21:16:28.915Z,27.98
2022-12-05T21:18:58.554Z,28.58
2022-12-05T21:21:27.663Z,29.33
2022-12-05T21:23:57.006Z,27.10
2022-12-05T21:26:26.327Z,32.50
2022-12-05T21:28:54.028Z,30.45
2022-12-05T21:31:30.951Z,30.77
2022-12-05T21:34:00.671Z,29.60
2022-12-05T21:36:30.024Z,31.15
2022-12-05T21:38:57.392Z,31.17
2022-12-05T21:41:25.722Z,30.45
2022-12-05T21:43:55.218Z,32.72
2022-12-05T21:46:25.162Z,30.92
2022-12-05T21:48:52.996Z,34.83
2022-12-05T21:51:20.909Z,35.58
2022-12-05T21:53:48.511Z,31.05
2022-12-05T21:56:18.792Z,31.63
2022-12-05T21:58:47.386Z,29.30
2022-12-05T22:01:26.625Z,32.13
2022-12-05T22:03:59.351Z,33.95
2022-12-05T22:06:27.663Z,33.50
2022-12-05T22:08:55.682Z,35.67
2022-12-05T22:11:24.287Z,31.80
2022-12-05T22:13:52.306Z,35.70
2022-12-05T22:16:20.688Z,37.05
2022-12-05T22:18:48.274Z,38.53
2022-12-05T22:21:18.537Z,38.42
2022-12-05T22:23:46.399Z,39.85
2022-12-05T22:26:17.184Z,39.28
2022-12-05T22:28:45.207Z,34.22
2022-12-05T22:31:15.238Z,33.95
2022-12-05T22:33:43.562Z,39.00
2022-12-05T22:36:12.789Z,37.35
2022-12-05T22:38:43.105Z,37.40
2022-12-05T22:41:15.722Z,36.80
2022-12-05T22:43:44.982Z,37.47
2022-12-05T22:46:15.151Z,44.88
2022-12-05T22:48:42.430Z,47.38
2022-12-05T22:51:10.383Z,43.70
2022-12-05T22:53:38.678Z,37.33
2022-12-05T22:56:17.172Z,40.25
2022-12-05T22:58:46.274Z,41.15
2022-12-05T23:01:15.086Z,41.38
2022-12-05T23:03:43.612Z,39.70
2022-12-05T23:06:12.331Z,43.65
2022-12-05T23:08:41.259Z,39.67
2022-12-05T23:11:09.534Z,38.22
2022-12-05T23:13:37.784Z,42.38
2022-12-05T23:16:22.194Z,38.45
2022-12-05T23:18:53.555Z,41.80
2022-12-05T23:21:22.890Z,44.03
2022-12-05T23:23:53.062Z,45.97
2022-12-05T23:26:23.061Z,40.28
2022-12-05T23:28:50.667Z,45.42
2022-12-05T23:31:18.769Z,44.35
2022-12-05T23:33:49.588Z,43.75
2022-12-05T23:36:19.266Z,47.55
2022-12-05T23:38:46.627Z,42.20
2022-12-05T23:41:18.567Z,42.63
2022-12-05T23:46:15.243Z,41.20
2022-12-05T23:48:43.120Z,45.75
2022-12-05T23:51:28.740Z,41.15
2022-12-05T23:53:59.451Z,39.67
2022-12-05T23:56:30.370Z,40.50
2022-12-05T23:58:58.085Z,32.60
